UKWW/VIN METAR and TAF weather

Enter ICAO airport designator
Station Type Date Time Source
UKWW METAR 2019/12/06 18:00 UTC NOAA

UKWW 061800Z 22006MPS CAVOK 00/M03 Q1016 R13/0///65 NOSIG


Station Type Date Time Source
UKWW Decoded METAR 2019/12/06 18:00 UTC NOAA

Station name not available
Dec 06, 2019 - 01:00 PM EST / 2019.12.06 1800 UTC
Wind: from the SW (220 degrees) at 13 MPH (12 KT):0
Visibility: greater than 7 mile(s):0
Temperature: 32 F (0 C)
Windchill: 23 F (-5 C):1
Dew Point: 26 F (-3 C)
Relative Humidity: 80%
Pressure (altimeter): 30.00 in. Hg (1016 hPa)
ob: UKWW 061800Z 22006MPS CAVOK 00/M03 Q1016 R13/0///65 NOSIG
cycle: 18

Station Type Date Time Source
UKWW TAF 2010/03/21 10:45 UTC NOAA

TAF UKWW 211045Z 2112/2212 24005G10MPS 9999 SCT020 BKN070
TEMPO 2115/2207 1400 -SHRA BR SCT004 BKN007CB
FM220700 34007G12MPS 9999 SCT015 BKN100 TX11/2112Z TN01/2204Z

Example: see airport list